Time;durP1;ratioP1;P1;durP2;ratioP2;P2;SDS_P1;SDS_P2;PMS_P1;PMS_P2;Temp;Humidity;BMP_temperature;BMP_pressure;BME280_temperature;BME280_humidity;BME280_pressure;Samples;Min_cycle;Max_cycle;Signal;HPM_P1;HPM_P2
2024/02/18 00:01:17;;;;;;;;;;;;;;;16.73;43.37;102076.59;5024534;28;1039;-48
2024/02/18 00:03:43;;;;;;;;;;;;;;;17.44;41.45;102073.59;5025973;28;1066;-46
2024/02/18 00:06:08;;;;;;;;;;;;;;;16.28;44.00;102075.34;5018546;28;1907;-48
2024/02/18 00:08:34;;;;;;;;;;;;;;;15.81;44.95;102076.19;5030123;28;1110;-48
2024/02/18 00:11:00;;;;;;;;;;;;;;;15.58;45.83;102071.47;5037568;28;1135;-47
2024/02/18 00:13:26;;;;;;;;;;;;;;;15.39;46.13;102071.53;5026168;28;1063;-50
2024/02/18 00:15:52;;;;;;;;;;;;;;;16.94;42.65;102066.88;5032236;28;1054;-51
2024/02/18 00:18:17;;;;;;;;;;;;;;;17.05;42.16;102066.00;5018233;28;1044;-50
2024/02/18 00:20:43;;;;;;;;;;;;;;;16.10;44.53;102065.34;5017476;28;1035;-49
2024/02/18 00:23:09;;;;;;;;;;;;;;;15.74;45.23;102068.03;5017655;28;1167;-50
2024/02/18 00:25:34;;;;;;;;;;;;;;;15.47;45.73;102075.84;5032162;28;1140;-51
2024/02/18 00:28:00;;;;;;;;;;;;;;;15.66;45.82;102062.91;5024957;28;1370;-51
2024/02/18 00:30:27;;;;;;;;;;;;;;;17.10;42.15;102055.13;5054984;28;1099;-51
2024/02/18 00:32:52;;;;;;;;;;;;;;;16.91;42.39;102061.88;5037481;28;1039;-49
2024/02/18 00:35:18;;;;;;;;;;;;;;;16.10;44.30;102051.63;5031198;28;1068;-47
2024/02/18 00:37:44;;;;;;;;;;;;;;;15.74;45.08;102051.59;5030019;28;1083;-50
2024/02/18 00:40:09;;;;;;;;;;;;;;;15.47;45.79;102053.06;5017481;28;1044;-51
2024/02/18 00:42:35;;;;;;;;;;;;;;;15.89;45.03;102042.06;5029999;28;1098;-48
2024/02/18 00:45:01;;;;;;;;;;;;;;;17.28;41.84;102043.06;5036856;28;1064;-52
2024/02/18 00:47:26;;;;;;;;;;;;;;;16.77;42.67;102033.81;5037167;28;1975;-50
2024/02/18 00:49:52;;;;;;;;;;;;;;;16.03;44.65;102039.94;5033693;28;1056;-48
2024/02/18 00:52:17;;;;;;;;;;;;;;;15.64;45.68;102045.84;5025139;28;1292;-51
2024/02/18 00:54:43;;;;;;;;;;;;;;;15.44;45.79;102039.84;5022535;28;1135;-52
2024/02/18 00:57:09;;;;;;;;;;;;;;;15.64;45.63;102047.75;5037090;28;1047;-48
2024/02/18 00:59:34;;;;;;;;;;;;;;;17.14;42.20;102038.13;5036917;28;1132;-50
2024/02/18 01:02:00;;;;;;;;;;;;;;;16.97;42.47;102027.94;5027253;28;1135;-47
2024/02/18 01:04:25;;;;;;;;;;;;;;;16.13;44.12;102031.94;5036531;28;980;-52
2024/02/18 01:06:51;;;;;;;;;;;;;;;15.72;45.35;102034.53;5036593;28;1910;-50
2024/02/18 01:09:16;;;;;;;;;;;;;;;15.43;46.02;102036.28;5023497;28;1031;-50
2024/02/18 01:11:42;;;;;;;;;;;;;;;15.29;46.33;102035.66;5036376;28;1136;-49
2024/02/18 01:14:08;;;;;;;;;;;;;;;16.59;43.25;102032.09;5034252;28;1262;-49
2024/02/18 01:16:33;;;;;;;;;;;;;;;17.44;41.44;102033.16;5024992;28;1111;-50
2024/02/18 01:18:59;;;;;;;;;;;;;;;16.33;43.90;102025.25;5035287;28;1048;-50
2024/02/18 01:21:25;;;;;;;;;;;;;;;15.79;45.00;102022.63;5036595;28;1079;-49
2024/02/18 01:23:50;;;;;;;;;;;;;;;15.55;45.61;102030.81;5023028;28;1051;-50
2024/02/18 01:26:16;;;;;;;;;;;;;;;15.32;46.18;102035.19;5036490;28;1906;-49
2024/02/18 01:28:42;;;;;;;;;;;;;;;16.76;43.04;102022.03;5036653;28;1131;-50
2024/02/18 01:31:07;;;;;;;;;;;;;;;17.26;41.55;102019.66;5036057;28;1527;-49
2024/02/18 01:33:33;;;;;;;;;;;;;;;16.18;44.08;102026.56;5031353;28;999;-49
2024/02/18 01:35:58;;;;;;;;;;;;;;;15.73;45.19;102019.75;5016769;28;1036;-50
2024/02/18 01:38:24;;;;;;;;;;;;;;;15.51;45.59;102021.38;5020053;28;1166;-49
2024/02/18 01:40:49;;;;;;;;;;;;;;;15.68;45.59;102014.16;5036595;28;1039;-50
2024/02/18 01:43:17;;;;;;;;;;;;;;;17.14;42.05;102010.63;5035745;28;1206;-51
2024/02/18 01:45:44;;;;;;;;;;;;;;;16.93;42.19;102021.28;5036493;28;1981;-50
2024/02/18 01:48:10;;;;;;;;;;;;;;;16.01;44.43;102018.22;5018409;28;1127;-51
2024/02/18 01:50:35;;;;;;;;;;;;;;;15.68;45.36;102022.38;5048048;28;1151;-49
2024/02/18 01:53:01;;;;;;;;;;;;;;;15.44;45.95;102028.88;5016180;28;1059;-52
2024/02/18 01:55:26;;;;;;;;;;;;;;;15.44;45.82;102034.38;5059214;28;1052;-51
2024/02/18 01:57:55;;;;;;;;;;;;;;;17.02;42.45;102024.47;5035993;28;1146;-51
2024/02/18 02:00:21;;;;;;;;;;;;;;;17.41;41.14;102019.09;5036329;28;1032;-46
2024/02/18 02:02:47;;;;;;;;;;;;;;;16.32;43.86;102020.81;5035648;28;1116;-50
2024/02/18 02:05:13;;;;;;;;;;;;;;;15.91;44.60;102020.75;5036227;28;1039;-50
2024/02/18 02:07:38;;;;;;;;;;;;;;;15.56;45.46;102024.25;5034229;28;1914;-51
2024/02/18 02:10:04;;;;;;;;;;;;;;;15.38;46.06;102028.75;5031496;28;1131;-47
2024/02/18 02:12:32;;;;;;;;;;;;;;;16.08;44.42;102034.56;5039729;28;1039;-48
2024/02/18 02:14:59;;;;;;;;;;;;;;;17.34;41.47;102030.25;5034293;28;1075;-47
2024/02/18 02:17:24;;;;;;;;;;;;;;;16.51;43.23;102032.47;5040179;28;1493;-51
2024/02/18 02:19:50;;;;;;;;;;;;;;;15.85;44.99;102030.75;5039830;28;1186;-52
2024/02/18 02:22:15;;;;;;;;;;;;;;;15.57;45.56;102036.88;5039585;28;1171;-47
2024/02/18 02:24:41;;;;;;;;;;;;;;;15.38;46.20;102041.63;5039709;28;1447;-51
2024/02/18 02:27:07;;;;;;;;;;;;;;;16.66;43.46;102031.97;5034775;28;1968;-50
2024/02/18 02:29:34;;;;;;;;;;;;;;;17.47;41.26;102025.53;5051938;28;1115;-48
2024/02/18 02:31:59;;;;;;;;;;;;;;;16.32;43.91;102021.66;5051398;28;1091;-49
2024/02/18 02:34:25;;;;;;;;;;;;;;;15.84;45.06;102020.03;5030835;28;1029;-47
2024/02/18 02:36:51;;;;;;;;;;;;;;;15.50;45.55;102019.72;5039448;28;1050;-51
2024/02/18 02:39:16;;;;;;;;;;;;;;;15.36;46.07;102021.81;5039404;28;1218;-49
2024/02/18 02:41:42;;;;;;;;;;;;;;;16.51;43.59;102014.09;5021734;28;1027;-47
2024/02/18 02:44:08;;;;;;;;;;;;;;;17.53;41.00;102008.88;5019333;28;1024;-50
2024/02/18 02:46:34;;;;;;;;;;;;;;;16.41;43.36;102009.22;5019821;28;1973;-50
2024/02/18 02:48:59;;;;;;;;;;;;;;;15.86;44.92;102015.94;5030997;28;1067;-50
2024/02/18 02:51:25;;;;;;;;;;;;;;;15.61;45.33;102015.31;5034246;28;1063;-48
2024/02/18 02:53:50;;;;;;;;;;;;;;;15.38;45.81;102015.03;5030173;28;1102;-51
2024/02/18 02:56:16;;;;;;;;;;;;;;;15.98;44.74;102015.97;5038852;28;1159;-51
2024/02/18 02:58:41;;;;;;;;;;;;;;;17.27;41.79;102010.34;5028382;28;1248;-51
2024/02/18 03:01:07;;;;;;;;;;;;;;;16.94;42.16;102020.19;5036511;28;1024;-51
2024/02/18 03:03:32;;;;;;;;;;;;;;;16.15;44.08;102020.72;5038683;28;1194;-53
2024/02/18 03:05:58;;;;;;;;;;;;;;;15.73;45.17;102017.00;5025248;28;1905;-50
2024/02/18 03:08:24;;;;;;;;;;;;;;;15.49;45.63;102024.38;5039054;28;1094;-49
2024/02/18 03:10:50;;;;;;;;;;;;;;;15.37;46.13;102021.59;5022234;28;1159;-49
2024/02/18 03:13:15;;;;;;;;;;;;;;;16.90;42.44;102011.59;5029462;28;1064;-49
2024/02/18 03:15:42;;;;;;;;;;;;;;;17.15;41.72;102007.66;5038064;28;1151;-49
2024/02/18 03:18:08;;;;;;;;;;;;;;;16.21;43.75;102014.28;5037278;28;1051;-50
2024/02/18 03:20:34;;;;;;;;;;;;;;;15.79;45.08;102015.25;5025708;28;1067;-49
2024/02/18 03:23:00;;;;;;;;;;;;;;;15.51;45.69;102021.38;5038973;28;1159;-50
2024/02/18 03:25:26;;;;;;;;;;;;;;;15.29;46.30;102013.72;5038268;28;1123;-47
2024/02/18 03:27:52;;;;;;;;;;;;;;;16.48;43.66;102002.75;5038483;28;1897;-49
2024/02/18 03:30:17;;;;;;;;;;;;;;;17.49;41.38;102012.34;5038413;28;1028;-52
2024/02/18 03:32:43;;;;;;;;;;;;;;;16.51;43.09;102016.84;5038353;28;1051;-48
2024/02/18 03:35:09;;;;;;;;;;;;;;;15.97;44.33;102016.22;5034485;28;1224;-49
2024/02/18 03:37:34;;;;;;;;;;;;;;;15.57;45.46;102014.94;5018380;28;1211;-48
2024/02/18 03:40:00;;;;;;;;;;;;;;;15.37;46.00;102018.84;5023891;28;1272;-50
2024/02/18 03:42:25;;;;;;;;;;;;;;;16.17;44.13;102016.69;5018564;28;1051;-49
2024/02/18 03:44:51;;;;;;;;;;;;;;;17.39;41.36;102022.09;5023101;28;1009;-48
2024/02/18 03:47:17;;;;;;;;;;;;;;;16.77;42.51;102022.84;5038362;28;1901;-48
2024/02/18 03:49:42;;;;;;;;;;;;;;;16.12;44.16;102024.78;5037992;28;1059;-50
2024/02/18 03:52:08;;;;;;;;;;;;;;;15.74;45.12;102021.41;5037733;28;1098;-51
2024/02/18 03:54:33;;;;;;;;;;;;;;;15.50;45.69;102027.94;5021727;28;1222;-49
2024/02/18 03:56:59;;;;;;;;;;;;;;;15.35;45.84;102026.47;5018494;28;1131;-47
2024/02/18 03:59:28;;;;;;;;;;;;;;;16.60;43.14;102028.28;5034584;28;1215;-49
2024/02/18 04:01:53;;;;;;;;;;;;;;;17.40;41.24;102021.03;5038086;28;1079;-52
2024/02/18 04:04:19;;;;;;;;;;;;;;;16.28;43.55;102022.38;5033917;28;1127;-49
2024/02/18 04:06:45;;;;;;;;;;;;;;;15.76;44.91;102017.59;5017921;28;1953;-50
2024/02/18 04:09:11;;;;;;;;;;;;;;;15.51;45.33;102027.69;5018122;28;1079;-51
2024/02/18 04:11:37;;;;;;;;;;;;;;;15.35;46.00;102026.47;5028388;28;1111;-48
2024/02/18 04:14:03;;;;;;;;;;;;;;;16.57;43.41;102020.53;5037585;28;1071;-51
2024/02/18 04:16:29;;;;;;;;;;;;;;;17.51;40.94;102019.25;5027036;28;888;-50
2024/02/18 04:18:54;;;;;;;;;;;;;;;16.36;43.76;102017.34;5034865;28;1091;-47
2024/02/18 04:21:20;;;;;;;;;;;;;;;15.84;44.75;102014.53;5037395;28;1055;-47
2024/02/18 04:23:45;;;;;;;;;;;;;;;15.51;45.67;102021.38;5034420;28;1036;-50
2024/02/18 04:26:11;;;;;;;;;;;;;;;15.38;46.10;102023.25;5027902;28;1898;-49
2024/02/18 04:28:37;;;;;;;;;;;;;;;16.99;42.44;102024.97;5037391;28;1143;-48
2024/02/18 04:31:02;;;;;;;;;;;;;;;17.00;42.25;102021.09;5036968;28;1190;-51
2024/02/18 04:33:28;;;;;;;;;;;;;;;16.12;44.04;102015.69;5035156;28;1071;-49
2024/02/18 04:35:54;;;;;;;;;;;;;;;15.63;45.21;102025.00;5029494;28;1012;-51
2024/02/18 04:38:20;;;;;;;;;;;;;;;15.45;45.57;102030.56;5030350;28;1048;-50
2024/02/18 04:40:45;;;;;;;;;;;;;;;15.92;44.65;102022.38;5028688;28;903;-49
2024/02/18 04:43:11;;;;;;;;;;;;;;;17.29;41.61;102024.66;5023806;28;1122;-47
2024/02/18 04:45:37;;;;;;;;;;;;;;;16.63;43.04;102033.28;5029492;28;1011;-54
2024/02/18 04:48:04;;;;;;;;;;;;;;;15.91;44.72;102038.03;5031342;28;1902;-52
2024/02/18 04:50:29;;;;;;;;;;;;;;;15.66;45.35;102030.00;5037421;28;1289;-52
2024/02/18 04:52:55;;;;;;;;;;;;;;;15.43;45.86;102041.75;5037012;28;1122;-55
2024/02/18 04:55:20;;;;;;;;;;;;;;;15.87;44.83;102036.84;5036660;28;1078;-51
2024/02/18 04:57:46;;;;;;;;;;;;;;;17.21;41.66;102030.59;5023753;28;1079;-53
2024/02/18 05:00:12;;;;;;;;;;;;;;;16.79;42.47;102028.94;5036821;28;1087;-49
2024/02/18 05:02:38;;;;;;;;;;;;;;;16.01;44.44;102031.94;5033015;28;1118;-49
2024/02/18 05:05:04;;;;;;;;;;;;;;;15.70;45.23;102030.38;5029056;28;853;-51
2024/02/18 05:07:30;;;;;;;;;;;;;;;15.49;45.81;102037.25;5036402;28;1993;-46
2024/02/18 05:09:57;;;;;;;;;;;;;;;15.82;45.07;102038.63;5035971;28;2495;-48
2024/02/18 05:12:23;;;;;;;;;;;;;;;17.21;41.80;102031.41;5036238;28;1035;-49
2024/02/18 05:14:48;;;;;;;;;;;;;;;16.43;43.23;102040.00;5036210;28;1075;-47
2024/02/18 05:17:14;;;;;;;;;;;;;;;17.69;40.91;102033.88;5035744;28;1059;-51
2024/02/18 05:19:40;;;;;;;;;;;;;;;17.00;42.06;102048.59;5036036;28;1127;-53
2024/02/18 05:22:06;;;;;;;;;;;;;;;17.44;41.61;102046.91;5035924;28;1543;-52
2024/02/18 05:24:32;;;;;;;;;;;;;;;18.49;39.32;102050.19;5025913;28;1112;-55
2024/02/18 05:26:58;;;;;;;;;;;;;;;16.84;42.73;102047.44;5033855;28;1906;-53
2024/02/18 05:29:23;;;;;;;;;;;;;;;16.28;43.72;102056.16;5036034;28;900;-51
2024/02/18 05:31:50;;;;;;;;;;;;;;;17.39;41.70;102065.25;5036104;28;1147;-51
2024/02/18 05:34:16;;;;;;;;;;;;;;;17.13;42.01;102066.72;5036228;28;1119;-53
2024/02/18 05:36:43;;;;;;;;;;;;;;;16.21;44.17;102064.50;5022567;28;1070;-52
2024/02/18 05:39:09;;;;;;;;;;;;;;;17.51;41.43;102065.19;5036185;28;1083;-52
2024/02/18 05:41:35;;;;;;;;;;;;;;;17.04;42.11;102078.09;5034552;28;2817;-48
2024/02/18 05:44:00;;;;;;;;;;;;;;;16.30;44.02;102072.38;5035893;28;1107;-51
2024/02/18 05:46:26;;;;;;;;;;;;;;;16.69;43.33;102080.91;5035930;28;1913;-53
2024/02/18 05:48:52;;;;;;;;;;;;;;;17.52;41.44;102075.94;5035734;28;1131;-52
2024/02/18 05:51:18;;;;;;;;;;;;;;;16.51;43.75;102088.22;5022564;28;1106;-53
2024/02/18 05:53:43;;;;;;;;;;;;;;;17.73;41.06;102085.38;5035806;28;1000;-54
2024/02/18 05:56:09;;;;;;;;;;;;;;;16.99;42.39;102074.41;5035693;28;1059;-49
2024/02/18 05:58:34;;;;;;;;;;;;;;;16.64;43.53;102081.63;5035855;28;1012;-50
2024/02/18 06:01:00;;;;;;;;;;;;;;;18.08;40.14;102091.75;5034642;28;1171;-50
2024/02/18 06:03:26;;;;;;;;;;;;;;;16.75;43.09;102086.25;5035661;28;1123;-54
2024/02/18 06:05:51;;;;;;;;;;;;;;;17.72;41.47;102083.69;5035463;28;1909;-52
2024/02/18 06:08:17;;;;;;;;;;;;;;;17.39;41.64;102084.50;5035971;28;1024;-50
2024/02/18 06:10:42;;;;;;;;;;;;;;;17.33;42.42;102086.31;5034612;28;2421;-51
2024/02/18 06:13:08;;;;;;;;;;;;;;;18.78;39.00;102086.66;5035393;28;1095;-55
2024/02/18 06:15:34;;;;;;;;;;;;;;;17.32;42.11;102083.81;5035629;28;1031;-50
2024/02/18 06:18:00;;;;;;;;;;;;;;;16.74;43.18;102086.50;5025385;28;943;-48
2024/02/18 06:20:25;;;;;;;;;;;;;;;18.18;40.52;102082.81;5032104;28;1052;-48
2024/02/18 06:22:51;;;;;;;;;;;;;;;17.18;42.41;102088.78;5035211;28;1020;-50
2024/02/18 06:25:17;;;;;;;;;;;;;;;16.62;43.59;102092.03;5035468;28;1109;-48
2024/02/18 06:27:42;;;;;;;;;;;;;;;17.66;41.54;102089.38;5035385;28;1894;-54
2024/02/18 06:30:08;;;;;;;;;;;;;;;17.54;41.69;102086.69;5034836;28;1118;-51
2024/02/18 06:32:34;;;;;;;;;;;;;;;16.69;43.67;102092.75;5035574;28;1031;-50
2024/02/18 06:34:59;;;;;;;;;;;;;;;18.37;39.99;102097.09;5035718;28;1122;-49
2024/02/18 06:37:25;;;;;;;;;;;;;;;17.32;42.14;102098.41;5035739;28;1103;-49
2024/02/18 06:39:51;;;;;;;;;;;;;;;16.79;43.34;102100.38;5024492;28;2179;-49
2024/02/18 06:42:18;;;;;;;;;;;;;;;17.23;42.47;102091.63;5035196;28;906;-51
2024/02/18 06:44:43;;;;;;;;;;;;;;;17.31;42.03;102098.66;5035292;28;991;-48
2024/02/18 06:47:09;;;;;;;;;;;;;;;16.64;43.70;102106.34;5035657;28;1910;-46
2024/02/18 06:49:34;;;;;;;;;;;;;;;17.74;41.53;102095.31;5035185;28;1051;-51
2024/02/18 06:52:00;;;;;;;;;;;;;;;16.98;43.10;102100.22;5035494;28;1078;-48
2024/02/18 06:54:25;;;;;;;;;;;;;;;16.97;43.12;102113.13;5038926;28;1219;-48
2024/02/18 06:56:51;;;;;;;;;;;;;;;18.10;40.67;102109.69;5030682;28;1206;-51
2024/02/18 06:59:18;;;;;;;;;;;;;;;16.90;43.00;102115.16;5034742;28;981;-49
2024/02/18 07:01:43;;;;;;;;;;;;;;;17.86;41.10;102114.47;5038532;28;1163;-47
2024/02/18 07:04:09;;;;;;;;;;;;;;;17.39;42.12;102118.34;5038512;28;1039;-47
2024/02/18 07:06:34;;;;;;;;;;;;;;;16.73;43.31;102121.41;5038209;28;1906;-46
2024/02/18 07:09:00;;;;;;;;;;;;;;;16.87;43.30;102110.13;5038768;28;1016;-47
2024/02/18 07:11:26;;;;;;;;;;;;;;;17.84;41.19;102115.81;5038534;28;2372;-52
2024/02/18 07:13:52;;;;;;;;;;;;;;;16.85;43.18;102106.81;5038494;28;1117;-47
2024/02/18 07:16:18;;;;;;;;;;;;;;;16.48;43.76;102118.94;5038355;28;1103;-53
2024/02/18 07:18:43;;;;;;;;;;;;;;;18.05;40.97;102120.59;5038192;28;850;-49
2024/02/18 07:21:09;;;;;;;;;;;;;;;17.60;41.47;102114.03;5038683;28;1147;-50
2024/02/18 07:23:34;;;;;;;;;;;;;;;16.72;43.45;102119.72;5039063;28;1163;-49
2024/02/18 07:26:00;;;;;;;;;;;;;;;16.58;43.79;102118.31;5038536;28;1906;-50
2024/02/18 07:28:26;;;;;;;;;;;;;;;18.18;40.51;102118.59;5038375;28;1004;-48
2024/02/18 07:30:52;;;;;;;;;;;;;;;16.83;43.17;102119.94;5038052;28;969;-50
2024/02/18 07:33:17;;;;;;;;;;;;;;;17.81;41.53;102108.91;5037554;28;1113;-47
2024/02/18 07:35:43;;;;;;;;;;;;;;;17.56;41.77;102114.78;5037890;28;988;-51
2024/02/18 07:38:08;;;;;;;;;;;;;;;16.79;43.28;102110.50;5038185;28;1090;-50
2024/02/18 07:40:34;;;;;;;;;;;;;;;16.57;43.74;102116.63;5038222;28;2665;-47
2024/02/18 07:43:00;;;;;;;;;;;;;;;17.81;41.13;102114.41;5037962;28;989;-47
2024/02/18 07:45:25;;;;;;;;;;;;;;;16.82;43.22;102107.28;5037899;28;1115;-48
2024/02/18 07:47:51;;;;;;;;;;;;;;;16.91;43.21;102108.59;5035903;28;1982;-48
2024/02/18 07:50:17;;;;;;;;;;;;;;;17.93;40.86;102111.59;5028537;28;1145;-48
2024/02/18 07:52:42;;;;;;;;;;;;;;;16.81;43.40;102111.94;5037609;28;1189;-48
2024/02/18 07:55:08;;;;;;;;;;;;;;;16.80;43.62;102114.91;5037510;28;1005;-48
2024/02/18 07:57:33;;;;;;;;;;;;;;;18.40;39.94;102119.47;5037813;28;1183;-49
2024/02/18 07:59:59;;;;;;;;;;;;;;;17.03;42.85;102106.66;5037725;28;1012;-53
2024/02/18 08:02:26;;;;;;;;;;;;;;;16.59;43.77;102109.84;5037474;28;1074;-47
2024/02/18 08:04:52;;;;;;;;;;;;;;;18.36;39.94;102110.06;5028728;28;1262;-49
2024/02/18 08:07:19;;;;;;;;;;;;;;;17.10;42.61;102112.00;5037400;28;1974;-51
2024/02/18 08:09:45;;;;;;;;;;;;;;;16.63;43.65;102107.44;5037000;28;2468;-50
2024/02/18 08:12:10;;;;;;;;;;;;;;;17.53;42.10;102107.88;5037186;28;1363;-50
2024/02/18 08:14:36;;;;;;;;;;;;;;;17.72;41.27;102102.13;5035049;28;1094;-49
2024/02/18 08:17:01;;;;;;;;;;;;;;;16.73;43.48;102110.41;5035816;28;1457;-51
2024/02/18 08:19:27;;;;;;;;;;;;;;;18.26;40.39;102115.41;5037206;28;1142;-50
2024/02/18 08:21:52;;;;;;;;;;;;;;;17.20;42.52;102112.19;5036172;28;1375;-47
2024/02/18 08:24:18;;;;;;;;;;;;;;;16.71;43.50;102112.53;5037715;28;1332;-49
2024/02/18 08:26:44;;;;;;;;;;;;;;;18.31;40.23;102109.97;5018815;28;1962;-48
2024/02/18 08:29:09;;;;;;;;;;;;;;;17.04;42.89;102110.22;5030433;28;1376;-52
2024/02/18 08:31:35;;;;;;;;;;;;;;;16.82;43.42;102104.53;5031238;28;1051;-52
2024/02/18 08:34:01;;;;;;;;;;;;;;;17.75;41.17;102101.63;5051401;28;1399;-50
2024/02/18 08:36:26;;;;;;;;;;;;;;;16.82;43.07;102110.84;5031490;28;1237;-49
2024/02/18 08:38:52;;;;;;;;;;;;;;;16.66;43.62;102109.72;5031145;28;1360;-51
2024/02/18 08:41:18;;;;;;;;;;;;;;;18.02;40.80;102107.34;5028843;28;2642;-50
2024/02/18 08:43:43;;;;;;;;;;;;;;;16.87;43.11;102104.63;5023711;28;1454;-47
2024/02/18 08:46:09;;;;;;;;;;;;;;;17.29;42.40;102107.13;5028821;28;1906;-49
2024/02/18 08:48:36;;;;;;;;;;;;;;;17.40;41.84;102102.66;5019396;28;1360;-50
2024/02/18 08:51:02;;;;;;;;;;;;;;;16.64;43.64;102103.59;5036812;28;1105;-48
2024/02/18 08:53:28;;;;;;;;;;;;;;;18.43;39.93;102104.38;5029718;28;1391;-51
2024/02/18 08:55:54;;;;;;;;;;;;;;;16.97;42.82;102098.53;5023665;28;1414;-47
2024/02/18 08:58:19;;;;;;;;;;;;;;;16.60;43.46;102105.16;5036620;28;1284;-50
2024/02/18 09:00:47;;;;;;;;;;;;;;;17.99;41.01;102104.25;5026982;28;1490;-49
2024/02/18 09:03:13;;;;;;;;;;;;;;;17.56;41.67;102101.03;5036297;28;1478;-49
2024/02/18 09:05:39;;;;;;;;;;;;;;;16.71;43.26;102090.56;5036055;28;1114;-49
2024/02/18 09:08:04;;;;;;;;;;;;;;;18.30;40.33;102102.81;5034726;28;1913;-49
2024/02/18 09:10:30;;;;;;;;;;;;;;;17.15;42.60;102097.53;5035786;28;2356;-50
2024/02/18 09:13:00;;;;;;;;;;;;;;;16.80;43.26;102096.50;5036364;28;1125;-53
2024/02/18 09:15:26;;;;;;;;;;;;;;;17.22;42.85;102095.44;5035546;28;1062;-48
2024/02/18 09:17:52;;;;;;;;;;;;;;;17.78;41.10;102093.72;5036483;28;1214;-48
2024/02/18 09:20:17;;;;;;;;;;;;;;;16.85;43.48;102098.56;5023248;28;1073;-53
2024/02/18 09:22:43;;;;;;;;;;;;;;;18.26;40.43;102091.47;5036109;28;1082;-52
2024/02/18 09:25:09;;;;;;;;;;;;;;;17.47;41.95;102091.53;5035178;28;1011;-50
2024/02/18 09:27:35;;;;;;;;;;;;;;;16.81;43.16;102092.69;5023563;28;1913;-50
2024/02/18 09:30:01;;;;;;;;;;;;;;;16.62;43.30;102089.28;5033482;28;1110;-51
2024/02/18 09:32:26;;;;;;;;;;;;;;;17.81;41.62;102086.03;5035695;28;1083;-52
2024/02/18 09:34:52;;;;;;;;;;;;;;;17.43;42.07;102081.03;5035963;28;1190;-49
2024/02/18 09:37:17;;;;;;;;;;;;;;;16.73;43.39;102077.44;5027145;28;1115;-51
2024/02/18 09:39:43;;;;;;;;;;;;;;;18.23;40.33;102067.19;5035146;28;2405;-53
2024/02/18 09:42:09;;;;;;;;;;;;;;;16.95;43.08;102071.31;5034486;28;1028;-50
2024/02/18 09:44:35;;;;;;;;;;;;;;;16.70;43.88;102075.16;5034578;28;1044;-51
2024/02/18 09:47:02;;;;;;;;;;;;;;;18.18;40.40;102069.03;5035622;28;1915;-55
2024/02/18 09:49:28;;;;;;;;;;;;;;;16.96;42.98;102063.88;5035526;28;1153;-50
2024/02/18 09:51:54;;;;;;;;;;;;;;;16.61;43.55;102057.41;5035804;28;1015;-51
2024/02/18 09:54:20;;;;;;;;;;;;;;;18.03;40.96;102062.19;5035512;28;1140;-53
2024/02/18 09:56:46;;;;;;;;;;;;;;;16.93;43.35;102054.25;5034646;28;1119;-52
2024/02/18 09:59:11;;;;;;;;;;;;;;;18.33;40.35;102058.25;5022702;28;1086;-50
2024/02/18 10:01:38;;;;;;;;;;;;;;;17.69;41.68;102064.13;5028206;28;1159;-51
2024/02/18 10:04:04;;;;;;;;;;;;;;;17.01;43.02;102066.75;5021435;28;1222;-51
2024/02/18 10:06:29;;;;;;;;;;;;;;;16.69;43.61;102068.03;5035059;28;1976;-51
2024/02/18 10:08:55;;;;;;;;;;;;;;;17.50;42.46;102063.50;5035560;28;1218;-51
2024/02/18 10:11:21;;;;;;;;;;;;;;;17.21;42.74;102052.56;5035291;28;2635;-49
2024/02/18 10:13:51;;;;;;;;;;;;;;;17.22;42.82;102056.97;5035604;28;1067;-51
2024/02/18 10:16:17;;;;;;;;;;;;;;;18.77;39.41;102054.66;5035992;28;1019;-48
2024/02/18 10:18:43;;;;;;;;;;;;;;;17.31;42.67;102047.25;5035973;28;1099;-53
2024/02/18 10:21:11;;;;;;;;;;;;;;;16.80;43.57;102040.75;5035519;28;1097;-50
2024/02/18 10:23:40;;;;;;;;;;;;;;;16.50;44.01;102050.88;5035619;28;1071;-50
2024/02/18 10:26:08;;;;;;;;;;;;;;;17.51;42.38;102040.44;5035435;28;1910;-49
2024/02/18 10:28:34;;;;;;;;;;;;;;;18.03;40.99;102034.69;5038150;28;1179;-48
2024/02/18 10:31:02;;;;;;;;;;;;;;;16.94;43.27;102033.91;5039049;28;1198;-46
2024/02/18 10:33:28;;;;;;;;;;;;;;;16.92;43.43;102033.34;5034404;28;1215;-50
2024/02/18 10:35:53;;;;;;;;;;;;;;;17.83;41.33;102028.84;5028452;28;1162;-48
2024/02/18 10:38:21;;;;;;;;;;;;;;;16.88;43.50;102030.22;5039180;28;984;-50
2024/02/18 10:40:47;;;;;;;;;;;;;;;18.04;41.21;102036.34;5038398;28;2709;-50
2024/02/18 10:43:13;;;;;;;;;;;;;;;17.28;42.79;102028.50;5038716;28;1050;-46
2024/02/18 10:45:39;;;;;;;;;;;;;;;17.38;42.52;102028.69;5037783;28;1048;-49
2024/02/18 10:48:05;;;;;;;;;;;;;;;18.31;40.43;102024.59;5037911;28;1918;-51
2024/02/18 10:50:34;;;;;;;;;;;;;;;17.18;42.95;102022.81;5037842;28;1177;-53
2024/02/18 10:53:19;;;;;;;;;;;;;;;16.79;43.50;102019.84;5038188;28;1179;-50
2024/02/18 10:55:46;;;;;;;;;;;;;;;17.27;42.71;102011.16;5037289;28;1134;-53
2024/02/18 10:58:15;;;;;;;;;;;;;;;17.78;41.47;102019.44;5037305;28;1392;-49
2024/02/18 11:00:42;;;;;;;;;;;;;;;16.87;43.42;102005.72;5038979;28;1091;-47
2024/02/18 11:03:17;;;;;;;;;;;;;;;17.62;41.93;102010.09;5057363;28;1062;-50
2024/02/18 11:05:44;;;;;;;;;;;;;;;17.36;42.48;102010.75;5038649;28;1375;-48
2024/02/18 11:08:09;;;;;;;;;;;;;;;16.74;43.68;102010.44;5038206;28;1910;-48
2024/02/18 11:10:35;;;;;;;;;;;;;;;17.32;42.69;102007.69;5037243;28;2454;-48
2024/02/18 11:13:01;;;;;;;;;;;;;;;17.32;42.55;102002.19;5032682;28;1048;-48
2024/02/18 11:15:27;;;;;;;;;;;;;;;16.82;43.76;102006.47;5063279;28;1115;-51
2024/02/18 11:17:52;;;;;;;;;;;;;;;18.67;39.93;102010.47;5038236;28;1108;-46
2024/02/18 11:20:18;;;;;;;;;;;;;;;17.30;42.50;102015.34;5037059;28;1146;-48
2024/02/18 11:22:44;;;;;;;;;;;;;;;16.76;43.54;102000.03;5034396;28;1145;-49
2024/02/18 11:25:11;;;;;;;;;;;;;;;16.56;43.99;101994.13;5037231;28;1123;-48
2024/02/18 11:27:37;;;;;;;;;;;;;;;16.41;43.80;101997.41;5034283;28;1980;-49
2024/02/18 11:30:04;;;;;;;;;;;;;;;17.24;42.76;101992.44;5066948;28;1090;-48
2024/02/18 11:32:30;;;;;;;;;;;;;;;17.30;42.62;101987.84;5037457;28;1120;-50
2024/02/18 11:34:55;;;;;;;;;;;;;;;16.70;43.70;101987.28;5027701;28;1083;-47
2024/02/18 11:37:27;;;;;;;;;;;;;;;18.03;41.29;101985.13;5034168;28;1094;-49
2024/02/18 11:39:56;;;;;;;;;;;;;;;17.26;42.76;101986.69;5036355;28;2510;-50
2024/02/18 11:42:22;;;;;;;;;;;;;;;17.00;43.73;101972.50;5024956;28;1051;-48
2024/02/18 11:44:47;;;;;;;;;;;;;;;18.23;40.79;101978.25;5026256;28;1393;-50
2024/02/18 11:47:13;;;;;;;;;;;;;;;17.12;42.94;101977.91;5033527;28;1910;-51
2024/02/18 11:49:39;;;;;;;;;;;;;;;16.98;43.80;101980.13;5032789;28;1074;-49
2024/02/18 11:52:05;;;;;;;;;;;;;;;17.94;41.32;101986.69;5037735;28;1035;-52
2024/02/18 11:54:32;;;;;;;;;;;;;;;16.94;43.29;101989.94;5037362;28;1205;-50
2024/02/18 11:56:57;;;;;;;;;;;;;;;17.40;42.85;101990.78;5036189;28;953;-48
2024/02/18 11:59:23;;;;;;;;;;;;;;;18.16;40.85;101983.09;5037455;28;1075;-47
2024/02/18 12:01:48;;;;;;;;;;;;;;;17.08;42.99;101977.59;5037611;28;1058;-48
2024/02/18 12:04:14;;;;;;;;;;;;;;;16.78;43.59;101975.06;5023149;28;1124;-49
2024/02/18 12:06:39;;;;;;;;;;;;;;;18.22;40.90;101973.84;5037620;28;1934;-47
2024/02/18 12:09:14;;;;;;;;;;;;;;;17.68;42.09;101974.44;5035741;28;911;-48
2024/02/18 12:11:44;;;;;;;;;;;;;;;16.99;43.44;101975.50;5029344;28;1079;-48
2024/02/18 12:14:09;;;;;;;;;;;;;;;16.60;43.97;101968.69;5037723;28;1063;-53
2024/02/18 12:16:36;;;;;;;;;;;;;;;18.37;40.65;101965.78;5037265;28;1533;-50
2024/02/18 12:19:02;;;;;;;;;;;;;;;17.45;42.33;101968.84;5037191;28;1039;-48
2024/02/18 12:21:27;;;;;;;;;;;;;;;16.73;43.90;101964.84;5037482;28;1035;-50
2024/02/18 12:23:53;;;;;;;;;;;;;;;18.15;41.10;101962.19;5036228;28;1096;-49
2024/02/18 12:26:18;;;;;;;;;;;;;;;17.20;42.78;101962.94;5029309;28;1902;-49
2024/02/18 12:28:44;;;;;;;;;;;;;;;17.61;42.32;101964.44;5031837;28;1008;-49
2024/02/18 12:31:10;;;;;;;;;;;;;;;18.34;40.63;101963.53;5030554;28;1071;-47
2024/02/18 12:33:35;;;;;;;;;;;;;;;17.13;43.08;101965.03;5037316;28;1128;-47
2024/02/18 12:36:01;;;;;;;;;;;;;;;17.97;41.60;101958.66;5035683;28;1111;-49
2024/02/18 12:38:26;;;;;;;;;;;;;;;17.79;41.69;101963.34;5036492;28;1047;-49
2024/02/18 12:40:58;;;;;;;;;;;;;;;17.05;43.48;101958.81;5030931;28;2772;-50